createdAt,value
2016-08-29T00:00:07.868Z,20.9
2016-08-29T00:00:17.863Z,20.9
2016-08-29T00:00:27.857Z,20.9
2016-08-29T00:00:37.856Z,20.9
2016-08-29T00:00:47.849Z,20.9
2016-08-29T00:00:57.848Z,20.9
2016-08-29T00:01:07.843Z,20.9
2016-08-29T00:01:17.840Z,20.9
2016-08-29T00:01:28.569Z,20.9
2016-08-29T00:01:37.828Z,20.9
2016-08-29T00:01:47.825Z,20.9
2016-08-29T00:01:57.819Z,20.9
2016-08-29T00:02:07.817Z,20.9
2016-08-29T00:02:17.811Z,20.9
2016-08-29T00:02:27.807Z,20.9
2016-08-29T00:02:37.805Z,20.9
2016-08-29T00:02:47.798Z,20.9
2016-08-29T00:02:57.794Z,20.9
2016-08-29T00:03:07.789Z,20.9
2016-08-29T00:03:17.785Z,20.9
2016-08-29T00:03:27.779Z,20.9
2016-08-29T00:03:37.775Z,20.9
2016-08-29T00:03:47.773Z,20.9
2016-08-29T00:03:57.769Z,20.9
2016-08-29T00:04:07.762Z,20.9
2016-08-29T00:04:17.760Z,20.9
2016-08-29T00:04:27.755Z,20.9
2016-08-29T00:04:37.749Z,20.9
2016-08-29T00:04:47.745Z,20.9
2016-08-29T00:04:57.741Z,20.9
2016-08-29T00:05:07.739Z,20.9
2016-08-29T00:05:17.735Z,20.9
2016-08-29T00:05:27.729Z,20.9
2016-08-29T00:05:37.726Z,20.9
2016-08-29T00:05:47.721Z,20.9
2016-08-29T00:05:57.716Z,20.9
2016-08-29T00:06:07.711Z,20.9
2016-08-29T00:06:18.438Z,20.9
2016-08-29T00:06:27.703Z,20.9
2016-08-29T00:06:37.699Z,20.9
2016-08-29T00:06:47.695Z,20.8
2016-08-29T00:06:57.690Z,20.8
2016-08-29T00:07:07.685Z,20.8
2016-08-29T00:07:17.681Z,20.8
2016-08-29T00:07:27.685Z,20.8
2016-08-29T00:07:38.399Z,20.8
2016-08-29T00:07:47.667Z,20.8
2016-08-29T00:07:57.663Z,20.8
2016-08-29T00:08:07.657Z,20.9
2016-08-29T00:08:17.654Z,20.8
2016-08-29T00:08:27.652Z,20.8
2016-08-29T00:08:37.646Z,20.8
2016-08-29T00:08:47.643Z,20.8
2016-08-29T00:08:57.640Z,20.8
2016-08-29T00:09:07.631Z,20.8
2016-08-29T00:09:17.627Z,20.8
2016-08-29T00:09:27.624Z,20.8
2016-08-29T00:09:37.619Z,20.8
2016-08-29T00:09:47.620Z,20.8
2016-08-29T00:09:57.612Z,20.8
2016-08-29T00:10:07.608Z,20.8
2016-08-29T00:10:17.603Z,20.8
2016-08-29T00:10:27.598Z,20.8
2016-08-29T00:10:37.594Z,20.8
2016-08-29T00:10:47.587Z,20.8
2016-08-29T00:10:57.584Z,20.8
2016-08-29T00:11:07.578Z,20.8
2016-08-29T00:11:17.575Z,20.8
2016-08-29T00:11:27.571Z,20.8
2016-08-29T00:11:37.568Z,20.8
2016-08-29T00:11:47.564Z,20.7
2016-08-29T00:11:57.558Z,20.7
2016-08-29T00:12:07.554Z,20.7
2016-08-29T00:12:18.277Z,20.7
2016-08-29T00:12:27.547Z,20.7
2016-08-29T00:12:37.540Z,20.7
2016-08-29T00:12:47.537Z,20.7
2016-08-29T00:12:57.531Z,20.8
2016-08-29T00:13:07.528Z,20.8
2016-08-29T00:13:17.531Z,20.7
2016-08-29T00:13:27.520Z,20.8
2016-08-29T00:13:37.515Z,20.8
2016-08-29T00:13:47.513Z,20.8
2016-08-29T00:13:57.504Z,20.8
2016-08-29T00:14:07.503Z,20.8
2016-08-29T00:14:17.497Z,20.8
2016-08-29T00:14:27.493Z,20.8
2016-08-29T00:14:37.489Z,20.8
2016-08-29T00:14:47.484Z,20.8
2016-08-29T00:14:57.479Z,20.8
2016-08-29T00:15:07.475Z,20.8
2016-08-29T00:15:17.473Z,20.8
2016-08-29T00:15:27.468Z,20.8
2016-08-29T00:15:37.462Z,20.8
2016-08-29T00:15:47.458Z,20.8
2016-08-29T00:15:57.455Z,20.8
2016-08-29T00:16:07.449Z,20.8
2016-08-29T00:16:17.444Z,20.8
2016-08-29T00:16:27.440Z,20.8
2016-08-29T00:16:37.435Z,20.8
2016-08-29T00:16:47.432Z,20.8
2016-08-29T00:16:57.429Z,20.8
2016-08-29T00:17:07.424Z,20.8
2016-08-29T00:17:17.418Z,20.8
2016-08-29T00:17:27.414Z,20.8
2016-08-29T00:17:37.410Z,20.8
2016-08-29T00:17:47.407Z,20.8
2016-08-29T00:17:57.401Z,20.8
2016-08-29T00:18:07.397Z,20.8
2016-08-29T00:18:17.392Z,20.8
2016-08-29T00:18:27.389Z,20.8
2016-08-29T00:18:37.383Z,20.8
2016-08-29T00:18:47.378Z,20.8
2016-08-29T00:18:57.376Z,20.8
2016-08-29T00:19:07.373Z,20.8
2016-08-29T00:19:17.366Z,20.8
2016-08-29T00:19:27.363Z,20.8
2016-08-29T00:19:37.359Z,20.8
2016-08-29T00:19:47.353Z,20.8
2016-08-29T00:19:57.351Z,20.8
2016-08-29T00:20:07.344Z,20.8
2016-08-29T00:20:17.345Z,20.8
2016-08-29T00:20:27.338Z,20.8
2016-08-29T00:20:37.331Z,20.8
2016-08-29T00:20:47.328Z,20.8
2016-08-29T00:20:57.322Z,20.8
2016-08-29T00:21:07.318Z,20.8
2016-08-29T00:21:17.317Z,20.8
2016-08-29T00:21:27.309Z,20.8
2016-08-29T00:21:37.305Z,20.8
2016-08-29T00:21:47.301Z,20.8
2016-08-29T00:21:57.296Z,20.8
2016-08-29T00:22:08.022Z,20.8
2016-08-29T00:22:17.289Z,20.8
2016-08-29T00:22:27.282Z,20.8
2016-08-29T00:22:37.278Z,20.8
2016-08-29T00:22:47.275Z,20.8
2016-08-29T00:22:57.272Z,20.8
2016-08-29T00:23:07.267Z,20.8
2016-08-29T00:23:17.263Z,20.8
2016-08-29T00:23:27.988Z,20.8
2016-08-29T00:23:37.260Z,20.8
2016-08-29T00:23:47.250Z,20.8
2016-08-29T00:23:57.245Z,20.8
2016-08-29T00:24:07.240Z,20.8
2016-08-29T00:24:17.233Z,20.8
2016-08-29T00:24:27.232Z,20.8
2016-08-29T00:24:37.228Z,20.8
2016-08-29T00:24:47.958Z,20.8
2016-08-29T00:24:57.218Z,20.8
2016-08-29T00:25:07.214Z,20.8
2016-08-29T00:25:17.209Z,20.8
2016-08-29T00:25:27.205Z,20.8
2016-08-29T00:25:37.200Z,20.8
2016-08-29T00:25:47.198Z,20.8
2016-08-29T00:25:57.192Z,20.7
2016-08-29T00:26:07.191Z,20.7
2016-08-29T00:26:17.183Z,20.7
2016-08-29T00:26:27.180Z,20.7
2016-08-29T00:26:37.176Z,20.7
2016-08-29T00:26:47.170Z,20.7
2016-08-29T00:26:57.167Z,20.7
2016-08-29T00:27:07.164Z,20.7
2016-08-29T00:27:17.157Z,20.7
2016-08-29T00:27:27.154Z,20.7
2016-08-29T00:27:37.149Z,20.7
2016-08-29T00:27:47.145Z,20.7
2016-08-29T00:27:57.140Z,20.7
2016-08-29T00:28:07.136Z,20.7
2016-08-29T00:28:17.130Z,20.7
2016-08-29T00:28:27.128Z,20.7
2016-08-29T00:28:37.122Z,20.7
2016-08-29T00:28:47.116Z,20.7
2016-08-29T00:28:57.115Z,20.7
2016-08-29T00:29:07.110Z,20.7
2016-08-29T00:29:17.104Z,20.7
2016-08-29T00:29:27.102Z,20.7
2016-08-29T00:29:37.100Z,20.7
2016-08-29T00:29:47.092Z,20.7
2016-08-29T00:29:57.088Z,20.7
2016-08-29T00:30:07.083Z,20.7
2016-08-29T00:30:17.078Z,20.7
2016-08-29T00:30:27.075Z,20.7
2016-08-29T00:30:37.071Z,20.7
2016-08-29T00:30:47.063Z,20.7
2016-08-29T00:30:57.060Z,20.7
2016-08-29T00:31:07.056Z,20.7
2016-08-29T00:31:17.052Z,20.7
2016-08-29T00:31:27.049Z,20.7
2016-08-29T00:31:37.043Z,20.7
2016-08-29T00:31:47.040Z,20.7
2016-08-29T00:31:57.035Z,20.7
2016-08-29T00:32:07.030Z,20.7
2016-08-29T00:32:17.027Z,20.7
2016-08-29T00:32:27.020Z,20.7
2016-08-29T00:32:37.020Z,20.7
2016-08-29T00:32:47.010Z,20.7
2016-08-29T00:32:57.010Z,20.7
2016-08-29T00:33:07.004Z,20.7
2016-08-29T00:33:17.000Z,20.7
2016-08-29T00:33:26.994Z,20.7
2016-08-29T00:33:36.992Z,20.7
2016-08-29T00:33:46.988Z,20.7
2016-08-29T00:33:56.983Z,20.7
2016-08-29T00:34:06.977Z,20.7
2016-08-29T00:34:16.972Z,20.7
2016-08-29T00:34:26.970Z,20.7
2016-08-29T00:34:36.966Z,20.7
2016-08-29T00:34:46.961Z,20.7
2016-08-29T00:34:56.968Z,20.7
2016-08-29T00:35:07.681Z,20.7
2016-08-29T00:35:16.947Z,20.7
2016-08-29T00:35:26.944Z,20.7
2016-08-29T00:35:36.939Z,20.7
2016-08-29T00:35:46.934Z,20.7
2016-08-29T00:35:56.931Z,20.7
2016-08-29T00:36:06.925Z,20.7
2016-08-29T00:36:16.921Z,20.7
2016-08-29T00:36:26.918Z,20.7
2016-08-29T00:36:36.912Z,20.6
2016-08-29T00:36:46.909Z,20.7
2016-08-29T00:36:56.903Z,20.7
2016-08-29T00:37:06.900Z,20.7
2016-08-29T00:37:16.896Z,20.6
2016-08-29T00:37:26.896Z,20.6
2016-08-29T00:37:36.885Z,20.6
2016-08-29T00:37:46.881Z,20.6
2016-08-29T00:37:57.609Z,20.7
2016-08-29T00:38:07.601Z,20.7
2016-08-29T00:38:16.869Z,20.7
2016-08-29T00:38:26.863Z,20.7
2016-08-29T00:38:36.860Z,20.6
2016-08-29T00:38:46.852Z,20.6
2016-08-29T00:38:56.850Z,20.6
2016-08-29T00:39:06.847Z,20.7
2016-08-29T00:39:16.845Z,20.6
2016-08-29T00:39:26.838Z,20.6
2016-08-29T00:39:36.834Z,20.6
2016-08-29T00:39:46.829Z,20.6
2016-08-29T00:39:56.825Z,20.6
2016-08-29T00:40:06.817Z,20.6
2016-08-29T00:40:16.817Z,20.6
2016-08-29T00:40:26.811Z,20.7
2016-08-29T00:40:36.807Z,20.7
2016-08-29T00:40:46.815Z,20.6
2016-08-29T00:40:56.800Z,20.7
2016-08-29T00:41:06.795Z,20.7
2016-08-29T00:41:16.791Z,20.6
2016-08-29T00:41:26.785Z,20.6
2016-08-29T00:41:36.781Z,20.6
2016-08-29T00:41:46.777Z,20.6
2016-08-29T00:41:56.771Z,20.6
2016-08-29T00:42:06.767Z,20.6
2016-08-29T00:42:16.763Z,20.6
2016-08-29T00:42:26.759Z,20.6
2016-08-29T00:42:36.755Z,20.6
2016-08-29T00:42:46.750Z,20.6
2016-08-29T00:42:56.746Z,20.6
2016-08-29T00:43:06.742Z,20.6
2016-08-29T00:43:16.736Z,20.6
2016-08-29T00:43:26.732Z,20.6
2016-08-29T00:43:36.729Z,20.6
2016-08-29T00:43:46.723Z,20.6
2016-08-29T00:43:56.719Z,20.6
2016-08-29T00:44:06.715Z,20.6
2016-08-29T00:44:16.711Z,20.6
2016-08-29T00:44:26.705Z,20.6
2016-08-29T00:44:36.699Z,20.6
2016-08-29T00:44:46.697Z,20.6
2016-08-29T00:44:56.693Z,20.7
2016-08-29T00:45:06.688Z,20.6
2016-08-29T00:45:16.683Z,20.6
2016-08-29T00:45:26.681Z,20.7
2016-08-29T00:45:36.677Z,20.6
2016-08-29T00:45:46.672Z,20.7
2016-08-29T00:45:56.666Z,20.6
2016-08-29T00:46:06.665Z,20.7
2016-08-29T00:46:16.663Z,20.7
2016-08-29T00:46:26.654Z,20.6
2016-08-29T00:46:36.653Z,20.6
2016-08-29T00:46:46.645Z,20.6
2016-08-29T00:46:56.641Z,20.6
2016-08-29T00:47:06.640Z,20.6
2016-08-29T00:47:16.636Z,20.6
2016-08-29T00:47:26.625Z,20.6
2016-08-29T00:47:36.622Z,20.6
2016-08-29T00:47:46.617Z,20.6
2016-08-29T00:47:56.614Z,20.6
2016-08-29T00:48:06.611Z,20.6
2016-08-29T00:48:16.610Z,20.6
2016-08-29T00:48:26.601Z,20.6
2016-08-29T00:48:36.597Z,20.6
2016-08-29T00:48:46.593Z,20.6
2016-08-29T00:48:56.590Z,20.6
2016-08-29T00:49:06.583Z,20.6
2016-08-29T00:49:16.579Z,20.6
2016-08-29T00:49:26.574Z,20.6
2016-08-29T00:49:36.579Z,20.6
2016-08-29T00:49:46.567Z,20.6
2016-08-29T00:49:56.562Z,20.6
2016-08-29T00:50:06.557Z,20.6
2016-08-29T00:50:16.552Z,20.6
2016-08-29T00:50:26.549Z,20.6
2016-08-29T00:50:36.545Z,20.6
2016-08-29T00:50:46.538Z,20.6
2016-08-29T00:50:56.536Z,20.6
2016-08-29T00:51:06.530Z,20.6
2016-08-29T00:51:16.527Z,20.6
2016-08-29T00:51:26.521Z,20.6
2016-08-29T00:51:36.519Z,20.6
2016-08-29T00:51:46.511Z,20.6
2016-08-29T00:51:56.510Z,20.6
2016-08-29T00:52:06.506Z,20.6
2016-08-29T00:52:16.500Z,20.6
2016-08-29T00:52:26.497Z,20.6
2016-08-29T00:52:36.490Z,20.6
2016-08-29T00:52:46.486Z,20.6
2016-08-29T00:52:56.483Z,20.6
2016-08-29T00:53:06.483Z,20.6
2016-08-29T00:53:16.471Z,20.6
2016-08-29T00:53:26.469Z,20.6
2016-08-29T00:53:36.466Z,20.6
2016-08-29T00:53:46.461Z,20.6
2016-08-29T00:53:56.455Z,20.6
2016-08-29T00:54:06.453Z,20.6
2016-08-29T00:54:16.447Z,20.6
2016-08-29T00:54:26.443Z,20.6
2016-08-29T00:54:36.438Z,20.6
2016-08-29T00:54:46.436Z,20.6
2016-08-29T00:54:56.431Z,20.6
2016-08-29T00:55:06.428Z,20.6
2016-08-29T00:55:16.421Z,20.6
2016-08-29T00:55:26.416Z,20.5
2016-08-29T00:55:36.414Z,20.5
2016-08-29T00:55:46.408Z,20.5
2016-08-29T00:55:56.407Z,20.5
2016-08-29T00:56:06.400Z,20.5
2016-08-29T00:56:16.393Z,20.5
2016-08-29T00:56:26.391Z,20.5
2016-08-29T00:56:36.386Z,20.5
2016-08-29T00:56:46.380Z,20.5
2016-08-29T00:56:56.379Z,20.5
2016-08-29T00:57:06.373Z,20.5
2016-08-29T00:57:16.369Z,20.5
2016-08-29T00:57:26.363Z,20.5
2016-08-29T00:57:36.360Z,20.5
2016-08-29T00:57:46.354Z,20.6
2016-08-29T00:57:56.349Z,20.6
2016-08-29T00:58:06.349Z,20.6
2016-08-29T00:58:16.342Z,20.6
2016-08-29T00:58:27.068Z,20.6
2016-08-29T00:58:36.335Z,20.6
2016-08-29T00:58:46.329Z,20.6
2016-08-29T00:58:56.324Z,20.6
2016-08-29T00:59:06.322Z,20.6
2016-08-29T00:59:16.313Z,20.6
2016-08-29T00:59:26.312Z,20.6
2016-08-29T00:59:36.307Z,20.6
2016-08-29T00:59:46.302Z,20.6
2016-08-29T00:59:56.297Z,20.6
2016-08-29T01:00:06.292Z,20.6
2016-08-29T01:00:16.288Z,20.6
2016-08-29T01:00:26.286Z,20.6
2016-08-29T01:00:36.281Z,20.5
2016-08-29T01:00:46.275Z,20.5
2016-08-29T01:00:56.270Z,20.6
2016-08-29T01:01:06.267Z,20.6
2016-08-29T01:01:16.268Z,20.6
2016-08-29T01:01:26.263Z,20.6
2016-08-29T01:01:36.254Z,20.6
2016-08-29T01:01:46.250Z,20.6
2016-08-29T01:01:56.245Z,20.6
2016-08-29T01:02:06.242Z,20.5
2016-08-29T01:02:16.242Z,20.5
2016-08-29T01:02:26.230Z,20.5
2016-08-29T01:02:36.235Z,20.5
2016-08-29T01:02:46.222Z,20.5
2016-08-29T01:02:56.217Z,20.6
2016-08-29T01:03:06.215Z,20.5
2016-08-29T01:03:16.210Z,20.6
2016-08-29T01:03:26.937Z,20.6
2016-08-29T01:03:36.201Z,20.6
2016-08-29T01:03:46.196Z,20.6
2016-08-29T01:03:56.193Z,20.6
2016-08-29T01:04:06.188Z,20.6
2016-08-29T01:04:16.186Z,20.6
2016-08-29T01:04:26.178Z,20.6
2016-08-29T01:04:36.175Z,20.6
2016-08-29T01:04:46.173Z,20.6
2016-08-29T01:04:56.167Z,20.6
2016-08-29T01:05:06.161Z,20.6
2016-08-29T01:05:16.155Z,20.6
2016-08-29T01:05:26.153Z,20.6
2016-08-29T01:05:36.149Z,20.6
2016-08-29T01:05:46.144Z,20.6
2016-08-29T01:05:56.869Z,20.6
2016-08-29T01:06:06.136Z,20.6
2016-08-29T01:06:16.130Z,20.6
2016-08-29T01:06:26.124Z,20.6
2016-08-29T01:06:36.119Z,20.6
2016-08-29T01:06:46.115Z,20.6
2016-08-29T01:06:56.113Z,20.6
2016-08-29T01:07:06.109Z,20.6
2016-08-29T01:07:16.105Z,20.6
2016-08-29T01:07:26.115Z,20.6
2016-08-29T01:07:36.098Z,20.6
2016-08-29T01:07:46.092Z,20.6
2016-08-29T01:07:56.085Z,20.6
2016-08-29T01:08:06.082Z,20.6
2016-08-29T01:08:16.080Z,20.6
2016-08-29T01:08:26.072Z,20.6
2016-08-29T01:08:36.069Z,20.6
2016-08-29T01:08:46.066Z,20.6
2016-08-29T01:08:56.060Z,20.6
2016-08-29T01:09:06.057Z,20.6
2016-08-29T01:09:16.054Z,20.6
2016-08-29T01:09:26.059Z,20.6
2016-08-29T01:09:36.043Z,20.5
2016-08-29T01:09:46.038Z,20.5
2016-08-29T01:09:56.036Z,20.5
2016-08-29T01:10:06.031Z,20.5
2016-08-29T01:10:16.027Z,20.5
2016-08-29T01:10:26.022Z,20.5
2016-08-29T01:10:36.017Z,20.5
2016-08-29T01:10:46.014Z,20.5
2016-08-29T01:10:56.015Z,20.6
2016-08-29T01:11:06.004Z,20.6
2016-08-29T01:11:16.000Z,20.6
2016-08-29T01:11:25.995Z,20.5
2016-08-29T01:11:35.996Z,20.6
2016-08-29T01:11:45.987Z,20.5
2016-08-29T01:11:55.980Z,20.5
2016-08-29T01:12:05.976Z,20.5
2016-08-29T01:12:15.973Z,20.5
2016-08-29T01:12:25.971Z,20.5
2016-08-29T01:12:35.961Z,20.5
2016-08-29T01:12:45.959Z,20.5
2016-08-29T01:12:55.954Z,20.5
2016-08-29T01:13:05.953Z,20.5
2016-08-29T01:13:15.947Z,20.5
2016-08-29T01:13:25.942Z,20.5
2016-08-29T01:13:35.937Z,20.5
2016-08-29T01:13:45.933Z,20.5
2016-08-29T01:13:55.930Z,20.5
2016-08-29T01:14:05.924Z,20.5
2016-08-29T01:14:15.921Z,20.5
2016-08-29T01:14:25.917Z,20.5
2016-08-29T01:14:35.912Z,20.5
2016-08-29T01:14:45.907Z,20.5
2016-08-29T01:14:55.901Z,20.5
2016-08-29T01:15:06.627Z,20.5
2016-08-29T01:15:15.893Z,20.5
2016-08-29T01:15:25.891Z,20.5
2016-08-29T01:15:35.883Z,20.5
2016-08-29T01:15:45.881Z,20.5
2016-08-29T01:15:55.876Z,20.5
2016-08-29T01:16:05.872Z,20.5
2016-08-29T01:16:15.870Z,20.5
2016-08-29T01:16:25.863Z,20.5
2016-08-29T01:16:35.858Z,20.5
2016-08-29T01:16:45.867Z,20.5
2016-08-29T01:16:55.849Z,20.5
2016-08-29T01:17:05.846Z,20.5
2016-08-29T01:17:15.843Z,20.5
2016-08-29T01:17:25.837Z,20.5
2016-08-29T01:17:35.833Z,20.4
2016-08-29T01:17:45.828Z,20.4
2016-08-29T01:17:55.820Z,20.5
2016-08-29T01:18:05.821Z,20.4
2016-08-29T01:18:15.826Z,20.5
2016-08-29T01:18:25.811Z,20.5
2016-08-29T01:18:35.805Z,20.5
2016-08-29T01:18:45.801Z,20.5
2016-08-29T01:18:55.795Z,20.5
2016-08-29T01:19:05.793Z,20.5
2016-08-29T01:19:15.788Z,20.5
2016-08-29T01:19:25.783Z,20.5
2016-08-29T01:19:35.780Z,20.5
2016-08-29T01:19:45.773Z,20.5
2016-08-29T01:19:55.770Z,20.5
2016-08-29T01:20:05.766Z,20.5
2016-08-29T01:20:15.762Z,20.5
2016-08-29T01:20:25.758Z,20.5
2016-08-29T01:20:35.752Z,20.5
2016-08-29T01:20:45.750Z,20.5
2016-08-29T01:20:55.745Z,20.5
2016-08-29T01:21:05.741Z,20.5
2016-08-29T01:21:15.735Z,20.5
2016-08-29T01:21:25.728Z,20.5
2016-08-29T01:21:35.727Z,20.5
2016-08-29T01:21:45.728Z,20.5
2016-08-29T01:21:55.719Z,20.5
2016-08-29T01:22:05.712Z,20.5
2016-08-29T01:22:15.709Z,20.5
2016-08-29T01:22:25.707Z,20.5
2016-08-29T01:22:35.699Z,20.5
2016-08-29T01:22:45.694Z,20.5
2016-08-29T01:22:55.691Z,20.5
2016-08-29T01:23:05.687Z,20.5
2016-08-29T01:23:15.679Z,20.5
2016-08-29T01:23:25.678Z,20.5
2016-08-29T01:23:35.675Z,20.5
2016-08-29T01:23:45.670Z,20.5
2016-08-29T01:23:55.665Z,20.5
2016-08-29T01:24:05.660Z,20.5
2016-08-29T01:24:15.657Z,20.4
2016-08-29T01:24:25.651Z,20.4
2016-08-29T01:24:35.649Z,20.5
2016-08-29T01:24:45.642Z,20.4
2016-08-29T01:24:55.637Z,20.5
2016-08-29T01:25:05.635Z,20.5
2016-08-29T01:25:15.632Z,20.5
2016-08-29T01:25:25.625Z,20.5
2016-08-29T01:25:35.621Z,20.5
2016-08-29T01:25:45.616Z,20.5
2016-08-29T01:25:55.611Z,20.5
2016-08-29T01:26:05.607Z,20.5
2016-08-29T01:26:15.603Z,20.5
2016-08-29T01:26:25.597Z,20.5
2016-08-29T01:26:35.595Z,20.5
2016-08-29T01:26:45.589Z,20.5
2016-08-29T01:26:55.584Z,20.4
2016-08-29T01:27:05.581Z,20.4
2016-08-29T01:27:15.575Z,20.5
2016-08-29T01:27:25.571Z,20.5
2016-08-29T01:27:35.567Z,20.5
2016-08-29T01:27:45.564Z,20.5
2016-08-29T01:27:55.560Z,20.5
2016-08-29T01:28:05.554Z,20.5
2016-08-29T01:28:15.550Z,20.5
2016-08-29T01:28:25.544Z,20.5
2016-08-29T01:28:35.545Z,20.5
2016-08-29T01:28:45.537Z,20.5
2016-08-29T01:28:55.532Z,20.5
2016-08-29T01:29:05.529Z,20.5
2016-08-29T01:29:15.524Z,20.5
2016-08-29T01:29:25.519Z,20.5
2016-08-29T01:29:35.514Z,20.5
2016-08-29T01:29:45.511Z,20.5
2016-08-29T01:29:55.505Z,20.5
2016-08-29T01:30:05.504Z,20.5
2016-08-29T01:30:15.498Z,20.5
2016-08-29T01:30:25.491Z,20.5
2016-08-29T01:30:35.488Z,20.5
2016-08-29T01:30:45.483Z,20.5
2016-08-29T01:30:55.479Z,20.5
2016-08-29T01:31:05.476Z,20.5
2016-08-29T01:31:15.472Z,20.5
2016-08-29T01:31:25.465Z,20.5
2016-08-29T01:31:35.461Z,20.5
2016-08-29T01:31:45.456Z,20.5
2016-08-29T01:31:55.454Z,20.5
2016-08-29T01:32:05.446Z,20.5
2016-08-29T01:32:16.174Z,20.5
2016-08-29T01:32:25.441Z,20.5
2016-08-29T01:32:35.434Z,20.5
2016-08-29T01:32:45.430Z,20.5
2016-08-29T01:32:55.425Z,20.5
2016-08-29T01:33:05.421Z,20.5
2016-08-29T01:33:15.418Z,20.5
2016-08-29T01:33:25.412Z,20.5
2016-08-29T01:33:35.411Z,20.5
2016-08-29T01:33:45.402Z,20.5
2016-08-29T01:33:55.397Z,20.5
2016-08-29T01:34:05.396Z,20.5
2016-08-29T01:34:15.392Z,20.5
2016-08-29T01:34:25.386Z,20.5
2016-08-29T01:34:35.383Z,20.5
2016-08-29T01:34:45.377Z,20.5
2016-08-29T01:34:55.378Z,20.5
2016-08-29T01:35:05.371Z,20.5
2016-08-29T01:35:15.363Z,20.4
2016-08-29T01:35:25.360Z,20.4
2016-08-29T01:35:35.357Z,20.4
2016-08-29T01:35:45.351Z,20.4
2016-08-29T01:35:55.346Z,20.4
2016-08-29T01:36:05.342Z,20.4
2016-08-29T01:36:15.338Z,20.4
2016-08-29T01:36:25.334Z,20.4
2016-08-29T01:36:35.328Z,20.4
2016-08-29T01:36:45.326Z,20.4
2016-08-29T01:36:55.323Z,20.4
2016-08-29T01:37:05.317Z,20.4
2016-08-29T01:37:15.311Z,20.4
2016-08-29T01:37:25.307Z,20.4
2016-08-29T01:37:35.301Z,20.4
2016-08-29T01:37:45.298Z,20.4
2016-08-29T01:37:55.295Z,20.4
2016-08-29T01:38:05.289Z,20.4
2016-08-29T01:38:15.284Z,20.4
2016-08-29T01:38:25.281Z,20.4
2016-08-29T01:38:35.277Z,20.4
2016-08-29T01:38:45.272Z,20.4
2016-08-29T01:38:55.270Z,20.4
2016-08-29T01:39:05.261Z,20.4
2016-08-29T01:39:15.260Z,20.4
2016-08-29T01:39:25.261Z,20.4
2016-08-29T01:39:35.250Z,20.4
2016-08-29T01:39:45.246Z,20.4
2016-08-29T01:39:55.242Z,20.4
2016-08-29T01:40:05.235Z,20.4
2016-08-29T01:40:15.233Z,20.4
2016-08-29T01:40:25.232Z,20.4
2016-08-29T01:40:35.224Z,20.4
2016-08-29T01:40:45.220Z,20.4
2016-08-29T01:40:55.216Z,20.4
2016-08-29T01:41:05.216Z,20.4
2016-08-29T01:41:15.207Z,20.4
2016-08-29T01:41:25.200Z,20.4
2016-08-29T01:41:35.197Z,20.4
2016-08-29T01:41:45.193Z,20.4
2016-08-29T01:41:55.188Z,20.4
2016-08-29T01:42:05.183Z,20.4
2016-08-29T01:42:15.181Z,20.4
2016-08-29T01:42:25.178Z,20.4
2016-08-29T01:42:35.172Z,20.4
2016-08-29T01:42:45.168Z,20.4
2016-08-29T01:42:55.161Z,20.4
2016-08-29T01:43:05.158Z,20.4
2016-08-29T01:43:15.161Z,20.4
2016-08-29T01:43:25.147Z,20.4
2016-08-29T01:43:35.146Z,20.4
2016-08-29T01:43:45.140Z,20.3
2016-08-29T01:43:55.134Z,20.3
2016-08-29T01:44:05.129Z,20.3
2016-08-29T01:44:15.125Z,20.3
2016-08-29T01:44:25.123Z,20.3
2016-08-29T01:44:35.116Z,20.3
2016-08-29T01:44:45.113Z,20.3
2016-08-29T01:44:55.107Z,20.3
2016-08-29T01:45:05.102Z,20.3
2016-08-29T01:45:15.100Z,20.3
2016-08-29T01:45:25.093Z,20.3
2016-08-29T01:45:35.091Z,20.3
2016-08-29T01:45:45.085Z,20.3
2016-08-29T01:45:55.082Z,20.3
2016-08-29T01:46:05.078Z,20.3
2016-08-29T01:46:15.073Z,20.3
2016-08-29T01:46:25.068Z,20.3
2016-08-29T01:46:35.063Z,20.3
2016-08-29T01:46:45.060Z,20.3
2016-08-29T01:46:55.057Z,20.3
2016-08-29T01:47:05.053Z,20.3
2016-08-29T01:47:15.048Z,20.3
2016-08-29T01:47:25.043Z,20.3
2016-08-29T01:47:35.039Z,20.3
2016-08-29T01:47:45.033Z,20.3
2016-08-29T01:47:55.029Z,20.3
2016-08-29T01:48:05.022Z,20.3
2016-08-29T01:48:15.021Z,20.3
2016-08-29T01:48:25.017Z,20.3
2016-08-29T01:48:35.011Z,20.3
2016-08-29T01:48:45.008Z,20.4
2016-08-29T01:48:55.004Z,20.3
2016-08-29T01:49:04.996Z,20.3
2016-08-29T01:49:14.992Z,20.3
2016-08-29T01:49:24.990Z,20.3
2016-08-29T01:49:34.985Z,20.3
2016-08-29T01:49:44.985Z,20.4
2016-08-29T01:49:54.980Z,20.4
2016-08-29T01:50:04.974Z,20.3
2016-08-29T01:50:14.968Z,20.4
2016-08-29T01:50:24.963Z,20.4
2016-08-29T01:50:34.959Z,20.3
2016-08-29T01:50:44.952Z,20.3
2016-08-29T01:50:54.950Z,20.3
2016-08-29T01:51:04.946Z,20.3
2016-08-29T01:51:14.940Z,20.3
2016-08-29T01:51:24.937Z,20.4
2016-08-29T01:51:34.933Z,20.4
2016-08-29T01:51:44.929Z,20.4
2016-08-29T01:51:54.924Z,20.4
2016-08-29T01:52:04.918Z,20.4
2016-08-29T01:52:14.912Z,20.3
2016-08-29T01:52:24.910Z,20.4
2016-08-29T01:52:34.902Z,20.3
2016-08-29T01:52:44.902Z,20.3
2016-08-29T01:52:54.898Z,20.3
2016-08-29T01:53:04.890Z,20.3
2016-08-29T01:53:14.890Z,20.3
2016-08-29T01:53:24.883Z,20.3
2016-08-29T01:53:34.879Z,20.3
2016-08-29T01:53:44.874Z,20.3
2016-08-29T01:53:54.869Z,20.3
2016-08-29T01:54:04.866Z,20.3
2016-08-29T01:54:14.860Z,20.3
2016-08-29T01:54:24.857Z,20.3
2016-08-29T01:54:34.854Z,20.4
2016-08-29T01:54:44.847Z,20.3
2016-08-29T01:54:54.844Z,20.4
2016-08-29T01:55:04.840Z,20.4
2016-08-29T01:55:14.834Z,20.4
2016-08-29T01:55:24.829Z,20.3
2016-08-29T01:55:34.826Z,20.3
2016-08-29T01:55:44.823Z,20.3
2016-08-29T01:55:54.825Z,20.3
2016-08-29T01:56:04.814Z,20.3
2016-08-29T01:56:14.806Z,20.3
2016-08-29T01:56:24.806Z,20.3
2016-08-29T01:56:34.798Z,20.3
2016-08-29T01:56:44.796Z,20.3
2016-08-29T01:56:54.791Z,20.3
2016-08-29T01:57:04.786Z,20.3
2016-08-29T01:57:14.782Z,20.3
2016-08-29T01:57:24.776Z,20.3
2016-08-29T01:57:34.773Z,20.3
2016-08-29T01:57:44.767Z,20.3
2016-08-29T01:57:54.766Z,20.3
2016-08-29T01:58:04.758Z,20.3
2016-08-29T01:58:14.753Z,20.3
2016-08-29T01:58:24.750Z,20.3
2016-08-29T01:58:34.747Z,20.3
2016-08-29T01:58:44.741Z,20.3
2016-08-29T01:58:54.737Z,20.2
2016-08-29T01:59:04.732Z,20.2
2016-08-29T01:59:14.736Z,20.2
2016-08-29T01:59:24.724Z,20.2
2016-08-29T01:59:34.720Z,20.2
2016-08-29T01:59:44.714Z,20.2
2016-08-29T01:59:54.711Z,20.2
2016-08-29T02:00:04.706Z,20.3
2016-08-29T02:00:14.702Z,20.2
2016-08-29T02:00:24.699Z,20.3
2016-08-29T02:00:34.693Z,20.2
2016-08-29T02:00:44.687Z,20.2
2016-08-29T02:00:54.685Z,20.3
2016-08-29T02:01:04.682Z,20.3
2016-08-29T02:01:14.677Z,20.3
2016-08-29T02:01:24.668Z,20.3
2016-08-29T02:01:34.668Z,20.2
2016-08-29T02:01:44.662Z,20.3
2016-08-29T02:01:55.387Z,20.3
2016-08-29T02:02:04.654Z,20.3
2016-08-29T02:02:14.650Z,20.3
2016-08-29T02:02:24.645Z,20.3
2016-08-29T02:02:34.639Z,20.3
2016-08-29T02:02:44.634Z,20.3
2016-08-29T02:02:54.634Z,20.3
2016-08-29T02:03:04.628Z,20.3
2016-08-29T02:03:14.621Z,20.3
2016-08-29T02:03:24.625Z,20.3
2016-08-29T02:03:34.613Z,20.3
2016-08-29T02:03:44.607Z,20.3
2016-08-29T02:03:54.604Z,20.3
2016-08-29T02:04:04.596Z,20.3
2016-08-29T02:04:14.594Z,20.3
2016-08-29T02:04:24.592Z,20.3
2016-08-29T02:04:34.587Z,20.3
2016-08-29T02:04:44.583Z,20.3
2016-08-29T02:04:54.578Z,20.3
2016-08-29T02:05:04.574Z,20.3
2016-08-29T02:05:14.569Z,20.3
2016-08-29T02:05:24.565Z,20.3
2016-08-29T02:05:34.562Z,20.2
2016-08-29T02:05:44.556Z,20.2
2016-08-29T02:05:54.553Z,20.3
2016-08-29T02:06:04.548Z,20.3
2016-08-29T02:06:14.543Z,20.3
2016-08-29T02:06:24.538Z,20.3
2016-08-29T02:06:34.533Z,20.2
2016-08-29T02:06:44.529Z,20.2
2016-08-29T02:06:54.524Z,20.2
2016-08-29T02:07:04.522Z,20.2
2016-08-29T02:07:14.517Z,20.3
2016-08-29T02:07:24.512Z,20.3
2016-08-29T02:07:34.507Z,20.3
2016-08-29T02:07:44.500Z,20.3
2016-08-29T02:07:54.497Z,20.3
2016-08-29T02:08:04.494Z,20.3
2016-08-29T02:08:14.491Z,20.3
2016-08-29T02:08:24.484Z,20.3
2016-08-29T02:08:34.478Z,20.3
2016-08-29T02:08:44.475Z,20.3
2016-08-29T02:08:54.473Z,20.3
2016-08-29T02:09:04.467Z,20.3
2016-08-29T02:09:14.465Z,20.3
2016-08-29T02:09:24.456Z,20.3
2016-08-29T02:09:34.461Z,20.3
2016-08-29T02:09:44.450Z,20.3
2016-08-29T02:09:54.445Z,20.3
2016-08-29T02:10:05.169Z,20.3
2016-08-29T02:10:14.436Z,20.3
2016-08-29T02:10:24.432Z,20.4
2016-08-29T02:10:34.427Z,20.4
2016-08-29T02:10:44.422Z,20.4
2016-08-29T02:10:54.420Z,20.4
2016-08-29T02:11:04.416Z,20.4
2016-08-29T02:11:14.411Z,20.4
2016-08-29T02:11:24.403Z,20.4
2016-08-29T02:11:34.403Z,20.3
2016-08-29T02:11:44.395Z,20.3
2016-08-29T02:11:54.392Z,20.4
2016-08-29T02:12:04.387Z,20.4
2016-08-29T02:12:14.385Z,20.3
2016-08-29T02:12:24.378Z,20.3
2016-08-29T02:12:34.374Z,20.3
2016-08-29T02:12:44.370Z,20.3
2016-08-29T02:12:54.365Z,20.3
2016-08-29T02:13:04.360Z,20.3